createdAt,value
2022-11-25T00:30:07.499Z,0
2022-11-25T00:30:47.855Z,0
2022-11-25T00:31:28.414Z,0
2022-11-25T00:32:08.924Z,0
2022-11-25T00:32:49.344Z,0
2022-11-25T00:33:29.820Z,0
2022-11-25T00:34:10.292Z,0
2022-11-25T00:34:50.773Z,0
2022-11-25T00:35:31.238Z,0
2022-11-25T00:36:11.715Z,0
2022-11-25T00:43:36.983Z,0
2022-11-25T00:44:17.477Z,0
2022-11-25T00:44:57.938Z,0
2022-11-25T00:45:38.517Z,0
2022-11-25T00:46:18.955Z,0
2022-11-25T00:46:59.400Z,0
2022-11-25T00:47:39.894Z,0
2022-11-25T00:48:20.391Z,0
2022-11-25T00:49:00.862Z,0
2022-11-25T00:50:21.829Z,0
2022-11-25T00:57:47.144Z,0
2022-11-25T00:58:27.648Z,0
2022-11-25T00:59:08.115Z,0
2022-11-25T00:59:48.534Z,0
2022-11-25T01:00:29.046Z,0
2022-11-25T01:01:09.548Z,0
2022-11-25T01:01:50.027Z,0
2022-11-25T01:02:30.443Z,0
2022-11-25T01:03:10.915Z,0
2022-11-25T01:03:51.366Z,0
2022-11-25T01:04:31.856Z,0
2022-11-25T01:11:17.186Z,0
2022-11-25T01:11:57.654Z,0
2022-11-25T01:12:38.146Z,0
2022-11-25T01:13:18.645Z,0
2022-11-25T01:14:01.326Z,0
2022-11-25T01:14:39.737Z,0
2022-11-25T01:15:20.104Z,0
2022-11-25T01:16:00.658Z,0
2022-11-25T01:16:41.212Z,0
2022-11-25T01:19:20.022Z,0
2022-11-25T01:20:00.348Z,0
2022-11-25T01:20:40.762Z,0
2022-11-25T01:21:21.294Z,0
2022-11-25T01:22:01.803Z,0
2022-11-25T01:22:42.288Z,0
2022-11-25T01:23:22.722Z,0
2022-11-25T01:24:03.241Z,0
2022-11-25T01:25:24.255Z,0
2022-11-25T01:26:04.729Z,0
2022-11-25T01:31:29.523Z,0
2022-11-25T01:32:10.096Z,0
2022-11-25T01:32:50.584Z,0
2022-11-25T01:33:31.055Z,0
2022-11-25T01:34:11.528Z,0
2022-11-25T01:34:52.013Z,0
2022-11-25T01:35:32.531Z,0
2022-11-25T01:36:13.057Z,0
2022-11-25T01:36:53.552Z,0
2022-11-25T01:37:34.067Z,0
2022-11-25T01:38:14.594Z,0
2022-11-25T01:44:59.480Z,0
2022-11-25T01:45:40.189Z,0
2022-11-25T01:46:20.549Z,0
2022-11-25T01:47:00.999Z,0
2022-11-25T01:47:41.538Z,0
2022-11-25T01:48:21.982Z,0
2022-11-25T01:49:02.486Z,0
2022-11-25T01:49:42.940Z,0
2022-11-25T01:50:23.440Z,0
2022-11-25T01:51:03.953Z,0
2022-11-25T01:51:44.481Z,0
2022-11-25T01:58:29.517Z,0
2022-11-25T01:59:10.020Z,0
2022-11-25T01:59:50.576Z,0
2022-11-25T02:00:31.138Z,0
2022-11-25T02:01:11.713Z,0
2022-11-25T02:01:52.135Z,0
2022-11-25T02:03:13.147Z,0
2022-11-25T02:03:53.653Z,0
2022-11-25T02:04:34.469Z,0
2022-11-25T02:11:59.657Z,0
2022-11-25T02:12:40.107Z,0
2022-11-25T02:13:20.636Z,0
2022-11-25T02:14:01.096Z,0
2022-11-25T02:14:41.603Z,0
2022-11-25T02:15:22.120Z,0
2022-11-25T02:16:02.649Z,0
2022-11-25T02:16:43.213Z,0
2022-11-25T02:17:23.597Z,0
2022-11-25T02:18:04.104Z,0
2022-11-25T02:18:44.616Z,0
2022-11-25T02:25:29.591Z,0
2022-11-25T02:26:10.101Z,0
2022-11-25T02:26:50.558Z,0
2022-11-25T02:27:31.014Z,0
2022-11-25T02:28:11.488Z,0
2022-11-25T02:28:51.975Z,0
2022-11-25T02:29:32.460Z,0
2022-11-25T02:30:12.972Z,0
2022-11-25T02:30:53.522Z,0
2022-11-25T02:31:34.076Z,0
2022-11-25T02:32:14.478Z,0
2022-11-25T02:38:59.559Z,0
2022-11-25T02:39:39.989Z,0
2022-11-25T02:40:20.502Z,0
2022-11-25T02:41:00.990Z,0
2022-11-25T02:41:41.520Z,0
2022-11-25T02:42:22.011Z,0
2022-11-25T02:43:02.535Z,0
2022-11-25T02:43:43.048Z,0
2022-11-25T02:44:23.524Z,0
2022-11-25T02:45:04.022Z,0
2022-11-25T02:45:44.564Z,0
2022-11-25T02:51:49.789Z,0
2022-11-25T02:52:30.272Z,0
2022-11-25T02:53:10.786Z,0
2022-11-25T02:53:51.322Z,0
2022-11-25T02:54:31.824Z,0
2022-11-25T02:55:12.352Z,0
2022-11-25T02:55:52.823Z,0
2022-11-25T02:56:33.358Z,0
2022-11-25T02:57:13.906Z,0
2022-11-25T02:57:54.356Z,0
2022-11-25T03:03:59.784Z,0
2022-11-25T03:04:40.292Z,0
2022-11-25T03:05:20.833Z,0
2022-11-25T03:06:01.278Z,0
2022-11-25T03:06:41.773Z,0
2022-11-25T03:07:22.349Z,0
2022-11-25T03:08:02.783Z,0
2022-11-25T03:08:43.243Z,0
2022-11-25T03:09:23.722Z,0
2022-11-25T03:10:04.216Z,0
2022-11-25T03:10:44.696Z,0
2022-11-25T03:13:22.726Z,0
2022-11-25T03:14:03.182Z,0
2022-11-25T03:14:43.690Z,0
2022-11-25T03:15:24.193Z,0
2022-11-25T03:16:04.679Z,0
2022-11-25T03:16:45.206Z,0
2022-11-25T03:17:25.652Z,0
2022-11-25T03:18:06.143Z,0
2022-11-25T03:18:46.670Z,0
2022-11-25T03:19:27.153Z,0
2022-11-25T03:20:07.636Z,0
2022-11-25T03:27:50.088Z,0
2022-11-25T03:28:30.580Z,0
2022-11-25T03:29:11.102Z,0
2022-11-25T03:29:51.639Z,0
2022-11-25T03:30:32.114Z,0
2022-11-25T03:31:12.692Z,0
2022-11-25T03:31:53.215Z,0
2022-11-25T03:32:33.609Z,0
2022-11-25T03:33:14.085Z,0
2022-11-25T03:33:54.543Z,0
2022-11-25T03:34:35.270Z,0
2022-11-25T03:40:40.252Z,0
2022-11-25T03:43:53.865Z,0
2022-11-25T03:44:34.740Z,0
2022-11-25T03:45:14.839Z,0
2022-11-25T03:45:55.404Z,0
2022-11-25T03:46:35.856Z,0
2022-11-25T03:47:16.325Z,0
2022-11-25T03:54:01.296Z,0
2022-11-25T03:54:41.804Z,0
2022-11-25T03:55:22.273Z,0
2022-11-25T03:56:02.770Z,0
2022-11-25T03:56:43.280Z,0
2022-11-25T03:57:23.830Z,0
2022-11-25T03:58:04.343Z,0
2022-11-25T03:59:25.311Z,0
2022-11-25T04:00:05.851Z,0
2022-11-25T04:00:46.285Z,0
2022-11-25T04:07:31.297Z,0
2022-11-25T04:08:11.765Z,0
2022-11-25T04:08:52.262Z,0
2022-11-25T04:09:32.807Z,0
2022-11-25T04:10:13.296Z,0
2022-11-25T04:10:53.803Z,0
2022-11-25T04:11:34.270Z,0
2022-11-25T04:12:14.779Z,0
2022-11-25T04:12:55.302Z,0
2022-11-25T04:13:35.753Z,0
2022-11-25T04:14:16.229Z,0
2022-11-25T04:21:01.373Z,0
2022-11-25T04:21:41.848Z,0
2022-11-25T04:22:22.365Z,0
2022-11-25T04:23:02.820Z,0
2022-11-25T04:23:43.294Z,0
2022-11-25T04:24:23.829Z,0
2022-11-25T04:25:04.305Z,0
2022-11-25T04:25:44.801Z,0
2022-11-25T04:27:05.774Z,0
2022-11-25T04:27:46.258Z,0
2022-11-25T04:34:31.259Z,0
2022-11-25T04:35:11.766Z,0
2022-11-25T04:35:52.289Z,0
2022-11-25T04:36:32.782Z,0
2022-11-25T04:37:13.294Z,0
2022-11-25T04:37:53.814Z,0
2022-11-25T04:38:34.307Z,0
2022-11-25T04:39:14.755Z,0
2022-11-25T04:39:55.240Z,0
2022-11-25T04:40:35.774Z,0
2022-11-25T04:41:16.205Z,0
2022-11-25T04:48:01.173Z,0
2022-11-25T04:48:41.652Z,0
2022-11-25T04:49:22.178Z,0
2022-11-25T04:50:02.672Z,0
2022-11-25T04:50:43.184Z,0
2022-11-25T04:51:23.671Z,0
2022-11-25T04:52:04.182Z,0
2022-11-25T04:52:44.675Z,0
2022-11-25T04:53:25.164Z,0
2022-11-25T04:54:05.658Z,0
2022-11-25T04:54:46.130Z,0
2022-11-25T05:02:11.633Z,0
2022-11-25T05:02:52.114Z,0
2022-11-25T05:03:32.608Z,0
2022-11-25T05:04:13.086Z,0
2022-11-25T05:04:53.583Z,0
2022-11-25T05:05:34.104Z,0
2022-11-25T05:06:14.602Z,0
2022-11-25T05:06:55.073Z,0
2022-11-25T05:07:35.577Z,0
2022-11-25T05:08:16.056Z,0
2022-11-25T05:15:41.588Z,0
2022-11-25T05:16:22.169Z,0
2022-11-25T05:17:02.742Z,0
2022-11-25T05:17:43.147Z,0
2022-11-25T05:18:23.664Z,0
2022-11-25T05:19:04.144Z,0
2022-11-25T05:19:44.647Z,0
2022-11-25T05:20:25.151Z,0
2022-11-25T05:21:05.620Z,0
2022-11-25T05:21:46.114Z,0
2022-11-25T05:27:06.352Z,0
2022-11-25T05:27:46.784Z,0
2022-11-25T05:28:27.284Z,0
2022-11-25T05:29:07.789Z,0
2022-11-25T05:29:52.915Z,0
2022-11-25T05:30:28.861Z,0
2022-11-25T05:31:09.375Z,0
2022-11-25T05:31:49.833Z,0
2022-11-25T05:32:30.408Z,0
2022-11-25T05:33:10.876Z,0
2022-11-25T05:33:51.343Z,0
2022-11-25T05:40:36.464Z,0
2022-11-25T05:41:16.950Z,0
2022-11-25T05:41:57.425Z,0
2022-11-25T05:42:37.932Z,0
2022-11-25T05:43:18.473Z,0
2022-11-25T05:43:58.939Z,0
2022-11-25T05:44:39.561Z,0
2022-11-25T05:46:52.266Z,0
2022-11-25T05:47:32.742Z,0
2022-11-25T05:48:13.276Z,0
2022-11-25T05:48:53.813Z,0
2022-11-25T05:49:34.329Z,0
2022-11-25T05:50:14.771Z,0
2022-11-25T05:50:55.312Z,0
2022-11-25T05:52:16.352Z,0
2022-11-25T05:52:56.850Z,0
2022-11-25T06:31:27.933Z,0
2022-11-25T06:32:08.978Z,0
2022-11-25T06:32:49.486Z,0
2022-11-25T06:33:29.942Z,0
2022-11-25T06:34:10.474Z,0
2022-11-25T06:34:50.946Z,0
2022-11-25T06:35:31.474Z,0
2022-11-25T06:36:11.951Z,0
2022-11-25T06:36:52.481Z,0
2022-11-25T06:37:32.951Z,0
2022-11-25T06:43:37.670Z,0
2022-11-25T06:44:18.143Z,0
2022-11-25T06:44:58.739Z,0
2022-11-25T06:45:39.257Z,0
2022-11-25T06:46:24.326Z,0
2022-11-25T06:47:00.270Z,0
2022-11-25T06:48:21.469Z,4
2022-11-25T06:49:02.037Z,0
2022-11-25T06:49:42.560Z,4
2022-11-25T06:54:43.980Z,8
2022-11-25T06:55:24.543Z,8
2022-11-25T06:56:05.036Z,12
2022-11-25T06:56:45.538Z,12
2022-11-25T06:57:26.059Z,12
2022-11-25T06:58:28.075Z,12
2022-11-25T06:58:47.178Z,16
2022-11-25T06:59:27.752Z,16
2022-11-25T07:06:54.016Z,40
2022-11-25T07:09:07.275Z,48
2022-11-25T07:09:48.270Z,56
2022-11-25T07:10:28.733Z,56
2022-11-25T07:11:09.232Z,56
2022-11-25T07:11:49.727Z,56
2022-11-25T07:12:30.216Z,64
2022-11-25T07:13:10.749Z,64
2022-11-25T07:13:51.300Z,68
2022-11-25T07:14:31.916Z,68
2022-11-25T07:19:57.013Z,96
2022-11-25T07:20:38.386Z,96
2022-11-25T07:21:18.900Z,100
2022-11-25T07:22:00.041Z,104
2022-11-25T07:22:40.637Z,108
2022-11-25T07:23:21.152Z,112
2022-11-25T07:24:01.705Z,108
2022-11-25T07:24:42.776Z,112
2022-11-25T07:29:51.871Z,144
2022-11-25T07:30:54.765Z,152
2022-11-25T07:31:24.149Z,164
2022-11-25T07:31:33.401Z,172
2022-11-25T07:32:11.505Z,184
2022-11-25T07:37:54.289Z,288
2022-11-25T07:38:35.363Z,308
2022-11-25T07:39:16.946Z,328
2022-11-25T07:39:58.000Z,320
2022-11-25T07:41:30.037Z,340
2022-11-25T07:43:34.221Z,376
2022-11-25T07:44:16.684Z,396
2022-11-25T07:44:57.751Z,416
2022-11-25T07:45:38.849Z,424
2022-11-25T07:48:24.469Z,412
2022-11-25T07:49:05.480Z,404
2022-11-25T07:52:19.406Z,408
2022-11-25T07:53:00.993Z,412
2022-11-25T07:53:40.953Z,424
2022-11-25T07:54:21.514Z,436
2022-11-25T07:55:02.698Z,448
2022-11-25T07:55:43.260Z,488
2022-11-25T07:56:23.732Z,532
2022-11-25T07:57:04.262Z,552
2022-11-25T08:00:29.045Z,572
2022-11-25T08:01:09.667Z,576
2022-11-25T08:01:50.203Z,580
2022-11-25T08:02:32.091Z,588
2022-11-25T08:05:59.322Z,612
2022-11-25T08:06:39.999Z,616
2022-11-25T08:07:20.557Z,620
2022-11-25T08:08:01.181Z,628
2022-11-25T08:08:41.748Z,628
2022-11-25T08:09:22.289Z,628
2022-11-25T08:10:02.787Z,636
2022-11-25T08:10:43.345Z,644
2022-11-25T08:11:23.814Z,648
2022-11-25T08:12:04.371Z,652
2022-11-25T08:17:29.257Z,684
2022-11-25T08:18:09.742Z,688
2022-11-25T08:18:50.269Z,688
2022-11-25T08:19:31.497Z,696
2022-11-25T08:20:11.286Z,700
2022-11-25T08:20:51.810Z,700
2022-11-25T08:21:32.354Z,700
2022-11-25T08:22:12.878Z,704
2022-11-25T08:23:33.923Z,712
2022-11-25T08:27:22.976Z,720
2022-11-25T08:28:02.303Z,724
2022-11-25T08:28:45.490Z,724
2022-11-25T08:29:24.861Z,728
2022-11-25T08:31:28.284Z,736
2022-11-25T08:32:11.916Z,740
2022-11-25T08:35:37.283Z,736
2022-11-25T08:36:17.758Z,736
2022-11-25T08:36:58.468Z,740
2022-11-25T08:37:39.178Z,748
2022-11-25T08:38:19.932Z,756
2022-11-25T08:39:00.769Z,760
2022-11-25T08:41:14.342Z,764
2022-11-25T08:41:54.757Z,756
2022-11-25T08:42:35.381Z,752
2022-11-25T08:43:15.928Z,756
2022-11-25T08:43:56.674Z,756
2022-11-25T08:44:37.214Z,756
2022-11-25T08:45:17.795Z,756
2022-11-25T08:45:58.432Z,760
2022-11-25T08:46:38.949Z,760
2022-11-25T08:50:19.607Z,760
2022-11-25T08:50:59.995Z,760
2022-11-25T08:51:40.710Z,768
2022-11-25T08:52:21.510Z,764
2022-11-25T08:53:02.080Z,764
2022-11-25T08:53:42.682Z,768
2022-11-25T08:54:23.172Z,768
2022-11-25T08:55:04.328Z,768
2022-11-25T09:00:29.568Z,776
2022-11-25T09:01:10.194Z,776
2022-11-25T09:01:50.699Z,776
2022-11-25T09:02:31.330Z,780
2022-11-25T09:03:11.925Z,780
2022-11-25T09:06:33.972Z,780
2022-11-25T09:07:24.903Z,780
2022-11-25T09:08:10.709Z,784
2022-11-25T09:09:00.548Z,780
2022-11-25T09:09:49.812Z,784
2022-11-25T09:10:39.324Z,784
2022-11-25T09:14:20.313Z,784
2022-11-25T09:15:00.732Z,784
2022-11-25T09:15:41.572Z,788
2022-11-25T09:16:21.976Z,788
2022-11-25T09:17:50.179Z,788
2022-11-25T09:18:30.537Z,792
2022-11-25T09:21:56.069Z,792
2022-11-25T09:22:36.664Z,800
2022-11-25T09:23:17.341Z,696
2022-11-25T09:23:57.754Z,640
2022-11-25T09:24:38.417Z,748
2022-11-25T09:25:18.978Z,652
2022-11-25T09:25:59.545Z,708
2022-11-25T09:26:40.095Z,672
2022-11-25T09:27:20.737Z,732
2022-11-25T09:32:05.839Z,796
2022-11-25T09:32:46.397Z,796
2022-11-25T09:36:06.344Z,792
2022-11-25T09:36:46.605Z,796
2022-11-25T09:37:27.139Z,796
2022-11-25T09:39:50.822Z,796
2022-11-25T09:40:41.470Z,796
2022-11-25T09:41:42.158Z,792
2022-11-25T09:42:31.440Z,792
2022-11-25T09:43:19.494Z,796
2022-11-25T09:44:07.815Z,796
2022-11-25T09:44:47.417Z,792
2022-11-25T09:45:28.023Z,792
2022-11-25T09:46:08.736Z,796
2022-11-25T09:46:49.324Z,792
2022-11-25T09:47:29.834Z,792
2022-11-25T09:53:35.388Z,796
2022-11-25T09:54:15.992Z,792
2022-11-25T09:54:56.622Z,792
2022-11-25T09:55:37.197Z,792
2022-11-25T09:56:17.719Z,788
2022-11-25T09:56:59.302Z,792
2022-11-25T09:57:39.772Z,792
2022-11-25T10:03:45.267Z,788
2022-11-25T10:04:25.744Z,792
2022-11-25T10:05:06.247Z,788
2022-11-25T10:05:46.758Z,788
2022-11-25T10:06:27.356Z,784
2022-11-25T10:07:07.827Z,784
2022-11-25T10:07:48.322Z,784
2022-11-25T10:08:29.096Z,792
2022-11-25T10:09:55.141Z,784
2022-11-25T10:10:35.603Z,784
2022-11-25T10:11:19.091Z,784
2022-11-25T10:12:03.107Z,788
2022-11-25T10:12:49.449Z,788
2022-11-25T10:13:30.132Z,784
2022-11-25T10:16:15.639Z,784
2022-11-25T10:16:56.117Z,784
2022-11-25T10:17:38.258Z,780
2022-11-25T10:21:55.102Z,788
2022-11-25T10:22:35.506Z,788
2022-11-25T10:23:16.153Z,784
2022-11-25T10:23:57.294Z,788
2022-11-25T10:24:41.317Z,788
2022-11-25T10:25:20.542Z,788
2022-11-25T10:26:01.082Z,792
2022-11-25T10:26:41.712Z,796
2022-11-25T10:27:22.373Z,800
2022-11-25T10:28:03.943Z,796
2022-11-25T10:28:44.222Z,800
2022-11-25T10:29:24.814Z,800
2022-11-25T10:34:09.752Z,828
2022-11-25T10:34:50.264Z,832
2022-11-25T10:35:30.949Z,840
2022-11-25T10:36:12.304Z,836
2022-11-25T10:36:52.867Z,832
2022-11-25T10:37:33.461Z,832
2022-11-25T10:38:18.719Z,836
2022-11-25T10:40:59.689Z,872
2022-11-25T10:41:40.206Z,872
2022-11-25T10:42:20.744Z,872
2022-11-25T10:43:01.320Z,860
2022-11-25T10:43:42.855Z,844
2022-11-25T10:44:23.430Z,836
2022-11-25T10:45:04.003Z,828
2022-11-25T10:45:44.576Z,824
2022-11-25T10:53:39.915Z,840
2022-11-25T10:56:38.786Z,844
2022-11-25T10:58:39.575Z,836
2022-11-25T10:59:20.277Z,836
2022-11-25T11:00:01.129Z,824
2022-11-25T11:00:42.028Z,824
2022-11-25T11:02:43.926Z,820
2022-11-25T11:03:24.484Z,828
2022-11-25T11:04:05.111Z,816
2022-11-25T11:04:45.643Z,824
2022-11-25T11:05:26.309Z,836
2022-11-25T11:06:06.894Z,884
2022-11-25T11:06:47.431Z,956
2022-11-25T11:07:29.356Z,892
2022-11-25T11:10:57.225Z,924
2022-11-25T11:11:34.451Z,924
2022-11-25T11:12:14.915Z,896
2022-11-25T11:12:55.438Z,940
2022-11-25T11:13:36.084Z,900
2022-11-25T11:14:16.504Z,972
2022-11-25T11:14:57.065Z,1012
2022-11-25T11:15:37.653Z,952
2022-11-25T11:16:18.197Z,884
2022-11-25T11:16:58.705Z,1016
2022-11-25T11:19:45.510Z,976
2022-11-25T11:20:23.740Z,1004
2022-11-25T11:21:04.257Z,920
2022-11-25T11:21:44.892Z,1008
2022-11-25T11:22:25.371Z,1112
2022-11-25T11:23:09.016Z,1048
2022-11-25T11:23:47.872Z,884
2022-11-25T11:24:29.051Z,860
2022-11-25T11:27:53.782Z,840
2022-11-25T11:28:34.236Z,704
2022-11-25T11:29:14.756Z,860
2022-11-25T11:29:55.263Z,880
2022-11-25T11:30:38.938Z,868
2022-11-25T11:34:44.204Z,636
2022-11-25T11:35:24.846Z,644
2022-11-25T11:36:05.274Z,832
2022-11-25T11:38:22.398Z,916
2022-11-25T11:39:02.646Z,952
2022-11-25T11:39:43.171Z,1092
2022-11-25T11:40:23.741Z,1004
2022-11-25T11:45:48.122Z,916
2022-11-25T11:46:28.540Z,824
2022-11-25T11:47:09.053Z,828
2022-11-25T11:47:49.533Z,788
2022-11-25T11:48:30.073Z,896
2022-11-25T11:49:10.596Z,688
2022-11-25T11:49:51.148Z,868
2022-11-25T11:50:31.679Z,820
2022-11-25T12:33:01.051Z,688
2022-11-25T12:33:41.912Z,716
2022-11-25T12:34:22.462Z,548
2022-11-25T12:35:03.024Z,608
2022-11-25T12:35:43.536Z,568
2022-11-25T12:36:24.105Z,672
2022-11-25T12:37:04.760Z,692
2022-11-25T12:37:45.313Z,748
2022-11-25T12:38:26.980Z,592
2022-11-25T12:43:10.700Z,736
2022-11-25T12:43:51.208Z,732
2022-11-25T12:44:31.895Z,716
2022-11-25T12:45:12.232Z,752
2022-11-25T12:45:52.777Z,748
2022-11-25T12:46:33.360Z,740
2022-11-25T12:47:13.804Z,768
2022-11-25T12:47:54.326Z,712
2022-11-25T12:48:34.843Z,744
2022-11-25T12:49:15.362Z,736
2022-11-25T12:55:21.033Z,740
2022-11-25T12:56:01.487Z,732
2022-11-25T12:56:41.992Z,680
2022-11-25T12:57:22.517Z,732
2022-11-25T12:58:03.015Z,652
2022-11-25T12:58:43.572Z,596
2022-11-25T12:59:24.027Z,580
2022-11-25T13:00:39.701Z,580
2022-11-25T13:00:45.333Z,568
2022-11-25T13:01:25.702Z,552
2022-11-25T13:06:10.668Z,596
2022-11-25T13:06:51.200Z,608
2022-11-25T13:07:32.297Z,568
2022-11-25T13:08:12.731Z,600
2022-11-25T13:08:53.347Z,580
2022-11-25T13:09:34.279Z,516
2022-11-25T13:10:14.541Z,492
2022-11-25T13:10:55.594Z,496
2022-11-25T13:11:35.951Z,508
2022-11-25T13:15:01.600Z,580
2022-11-25T13:15:41.604Z,572
2022-11-25T13:16:22.199Z,568
2022-11-25T13:17:43.256Z,604
2022-11-25T13:20:57.595Z,528
2022-11-25T13:21:38.267Z,520
2022-11-25T13:22:18.664Z,504
2022-11-25T13:22:59.174Z,496
2022-11-25T13:23:42.282Z,488
2022-11-25T13:24:20.678Z,480
2022-11-25T13:27:04.236Z,440
2022-11-25T13:27:43.702Z,436
2022-11-25T13:28:24.089Z,436
2022-11-25T13:29:04.726Z,436
2022-11-25T13:33:50.133Z,432
2022-11-25T13:34:30.716Z,444
2022-11-25T13:35:11.174Z,436
2022-11-25T13:35:52.362Z,440
2022-11-25T13:36:32.977Z,468
2022-11-25T13:37:13.719Z,480
2022-11-25T13:37:54.802Z,492
2022-11-25T13:42:40.093Z,508
2022-11-25T13:43:20.132Z,508
2022-11-25T13:44:02.576Z,508
2022-11-25T13:44:42.897Z,512
2022-11-25T13:45:23.513Z,512
2022-11-25T13:46:04.013Z,512
2022-11-25T13:46:45.169Z,516
2022-11-25T13:51:09.874Z,500
2022-11-25T13:51:29.915Z,500
2022-11-25T13:52:10.986Z,504
2022-11-25T13:52:52.815Z,504
2022-11-25T13:53:33.341Z,508
2022-11-25T13:54:14.481Z,512
2022-11-25T13:59:04.854Z,528
2022-11-25T13:59:51.038Z,532
2022-11-25T14:00:31.764Z,528
2022-11-25T14:01:12.289Z,528
2022-11-25T14:01:53.691Z,528
2022-11-25T14:02:34.482Z,532
2022-11-25T14:04:47.218Z,536
2022-11-25T14:05:29.046Z,536
2022-11-25T14:06:10.198Z,532
2022-11-25T14:06:50.519Z,532
2022-11-25T14:11:36.399Z,536
2022-11-25T14:12:16.845Z,532
2022-11-25T14:12:57.693Z,532
2022-11-25T14:13:38.653Z,520
2022-11-25T14:14:19.433Z,520
2022-11-25T14:15:00.883Z,516
2022-11-25T14:22:26.610Z,456
2022-11-25T14:23:07.147Z,448
2022-11-25T14:23:47.678Z,440
2022-11-25T14:24:28.112Z,444
2022-11-25T14:25:08.596Z,436
2022-11-25T14:25:49.077Z,436
2022-11-25T14:26:48.560Z,432
2022-11-25T14:27:10.090Z,428
2022-11-25T14:27:50.613Z,432
2022-11-25T14:35:56.634Z,496
2022-11-25T14:36:37.180Z,496
2022-11-25T14:37:17.612Z,476
2022-11-25T14:37:58.211Z,440
2022-11-25T14:38:38.686Z,420
2022-11-25T14:39:19.225Z,428
2022-11-25T14:39:59.661Z,428
2022-11-25T14:40:40.230Z,436
2022-11-25T14:42:01.199Z,440
2022-11-25T14:48:46.461Z,492
2022-11-25T14:50:48.069Z,528
2022-11-25T14:51:28.528Z,540
2022-11-25T14:52:09.065Z,544
2022-11-25T14:52:49.542Z,556
2022-11-25T14:53:30.076Z,548
2022-11-25T14:54:10.608Z,544
2022-11-25T14:54:51.090Z,524
2022-11-25T15:01:36.254Z,164
2022-11-25T15:02:16.803Z,196
2022-11-25T15:02:57.235Z,128
2022-11-25T15:03:37.800Z,100
2022-11-25T15:04:18.251Z,88
2022-11-25T15:04:58.764Z,80
2022-11-25T15:05:39.316Z,92
2022-11-25T15:06:19.801Z,108
2022-11-25T15:07:00.322Z,96
2022-11-25T15:07:40.822Z,64
2022-11-25T15:08:21.316Z,60
2022-11-25T15:14:26.569Z,76
2022-11-25T15:15:07.070Z,72
2022-11-25T15:15:48.590Z,56
2022-11-25T15:16:29.107Z,56
2022-11-25T15:17:09.605Z,52
2022-11-25T15:17:50.141Z,52
2022-11-25T15:18:30.589Z,56
2022-11-25T15:19:11.075Z,56
2022-11-25T15:26:36.795Z,40
2022-11-25T15:27:17.773Z,36
2022-11-25T15:27:59.941Z,36
2022-11-25T15:28:41.270Z,36
2022-11-25T15:33:22.463Z,28
2022-11-25T15:34:02.978Z,24
2022-11-25T15:34:43.477Z,24
2022-11-25T15:35:24.051Z,24
2022-11-25T15:36:04.490Z,24
2022-11-25T15:36:45.188Z,20
2022-11-25T15:37:25.521Z,20
2022-11-25T15:38:05.965Z,20
2022-11-25T15:38:46.473Z,20
2022-11-25T15:39:27.016Z,20
2022-11-25T15:40:07.511Z,16
2022-11-25T15:46:52.601Z,8
2022-11-25T15:47:33.118Z,4
2022-11-25T15:48:13.579Z,8
2022-11-25T15:48:54.132Z,4
2022-11-25T15:49:35.751Z,4
2022-11-25T15:50:15.051Z,4
2022-11-25T15:50:55.572Z,4
2022-11-25T15:51:36.077Z,0
2022-11-25T15:52:16.600Z,4
2022-11-25T15:55:30.337Z,4
2022-11-25T15:56:11.076Z,4
2022-11-25T15:56:51.573Z,0
2022-11-25T15:57:32.039Z,0
2022-11-25T15:58:12.583Z,0
2022-11-25T15:58:56.155Z,0
2022-11-25T15:59:33.650Z,0
2022-11-25T16:00:14.125Z,0
2022-11-25T16:00:54.645Z,0
2022-11-25T16:01:35.169Z,0
2022-11-25T16:08:20.175Z,0
2022-11-25T16:09:00.649Z,0
2022-11-25T16:09:41.210Z,0
2022-11-25T16:10:21.723Z,0
2022-11-25T16:11:02.207Z,0
2022-11-25T16:11:42.741Z,0
2022-11-25T16:12:23.241Z,0
2022-11-25T16:13:03.790Z,0
2022-11-25T16:14:24.800Z,0
2022-11-25T16:15:05.302Z,0
2022-11-25T16:21:50.298Z,0
2022-11-25T16:22:30.794Z,0
2022-11-25T16:23:11.277Z,0
2022-11-25T16:23:51.807Z,0
2022-11-25T16:24:32.315Z,0
2022-11-25T16:25:12.831Z,0
2022-11-25T16:25:53.318Z,0
2022-11-25T16:26:33.898Z,0
2022-11-25T16:27:14.385Z,0
2022-11-25T16:27:54.782Z,0
2022-11-25T16:28:35.322Z,0
2022-11-25T16:35:20.287Z,0
2022-11-25T16:36:03.184Z,0
2022-11-25T16:36:41.259Z,0
2022-11-25T16:37:21.875Z,0
2022-11-25T16:38:02.303Z,0
2022-11-25T16:38:42.766Z,0
2022-11-25T16:40:03.765Z,0
2022-11-25T16:40:44.290Z,0
2022-11-25T16:41:24.798Z,0
2022-11-25T16:46:33.339Z,0
2022-11-25T16:47:22.208Z,0
2022-11-25T16:48:03.904Z,0
2022-11-25T16:48:44.490Z,0
2022-11-25T16:52:07.565Z,0
2022-11-25T16:54:20.480Z,0
2022-11-25T16:55:00.946Z,0
2022-11-25T16:55:41.455Z,0
2022-11-25T16:56:21.943Z,0
2022-11-25T16:57:02.464Z,0
2022-11-25T16:57:42.995Z,0
2022-11-25T16:58:23.542Z,0
2022-11-25T16:59:03.976Z,0
2022-11-25T16:59:44.510Z,0
2022-11-25T17:00:25.026Z,0
2022-11-25T17:01:05.539Z,0
2022-11-25T17:07:50.635Z,0
2022-11-25T17:08:31.044Z,0
2022-11-25T17:09:11.495Z,0
2022-11-25T17:09:51.985Z,0
2022-11-25T17:10:32.462Z,0
2022-11-25T17:11:12.974Z,0
2022-11-25T17:11:53.494Z,0
2022-11-25T17:12:34.031Z,0
2022-11-25T17:13:14.507Z,0
2022-11-25T17:13:55.032Z,0
2022-11-25T17:14:35.706Z,0
2022-11-25T17:17:24.050Z,0
2022-11-25T17:18:00.708Z,0
2022-11-25T17:18:41.281Z,0
2022-11-25T17:19:21.812Z,0
2022-11-25T17:20:02.193Z,0
2022-11-25T17:20:42.687Z,0
2022-11-25T17:21:23.224Z,0
2022-11-25T17:22:03.689Z,0
2022-11-25T17:22:44.204Z,0
2022-11-25T17:23:24.726Z,0
2022-11-25T17:24:05.401Z,0
2022-11-25T17:30:50.510Z,0
2022-11-25T17:31:31.038Z,0
2022-11-25T17:32:11.544Z,0
2022-11-25T17:32:52.011Z,0
2022-11-25T17:33:32.528Z,0
2022-11-25T17:34:12.988Z,0
2022-11-25T17:34:53.473Z,0
2022-11-25T17:35:34.009Z,0
2022-11-25T17:36:14.509Z,0
2022-11-25T17:36:54.978Z,0
2022-11-25T17:37:35.489Z,0
2022-11-25T17:41:14.547Z,0
2022-11-25T17:41:55.016Z,0
2022-11-25T17:42:35.501Z,0
2022-11-25T17:43:15.969Z,0
2022-11-25T17:43:56.573Z,0
2022-11-25T17:44:37.297Z,0
2022-11-25T17:45:17.476Z,0
2022-11-25T17:45:58.020Z,0
2022-11-25T17:46:38.491Z,0
2022-11-25T17:47:19.049Z,0
2022-11-25T18:34:49.740Z,0
2022-11-25T18:35:35.638Z,0
2022-11-25T18:36:10.690Z,0
2022-11-25T18:36:51.238Z,0
2022-11-25T18:37:31.729Z,0
2022-11-25T18:38:12.286Z,0
2022-11-25T18:38:52.707Z,0
2022-11-25T18:39:33.208Z,0
2022-11-25T18:40:13.691Z,0
2022-11-25T18:41:34.754Z,0
2022-11-25T18:48:19.797Z,0
2022-11-25T18:49:00.304Z,0
2022-11-25T18:49:40.804Z,0
2022-11-25T18:50:21.316Z,0
2022-11-25T18:51:42.277Z,0
2022-11-25T18:52:22.861Z,0
2022-11-25T18:53:03.282Z,0
2022-11-25T18:53:43.798Z,0
2022-11-25T18:54:24.294Z,0
2022-11-25T18:55:04.790Z,0
2022-11-25T19:01:50.162Z,0
2022-11-25T19:02:30.279Z,0
2022-11-25T19:03:10.651Z,0
2022-11-25T19:06:44.758Z,0
2022-11-25T19:07:25.303Z,0
2022-11-25T19:08:05.729Z,0
2022-11-25T19:08:46.227Z,0
2022-11-25T19:09:26.787Z,0
2022-11-25T19:10:12.080Z,0
2022-11-25T19:10:47.772Z,0
2022-11-25T19:11:28.224Z,0
2022-11-25T19:12:08.712Z,0
2022-11-25T19:12:49.203Z,0
2022-11-25T19:13:29.698Z,0
2022-11-25T19:14:10.226Z,0
2022-11-25T19:20:55.252Z,0
2022-11-25T19:21:35.800Z,0
2022-11-25T19:22:16.272Z,0
2022-11-25T19:23:00.772Z,0
2022-11-25T19:23:37.309Z,0
2022-11-25T19:24:17.826Z,0
2022-11-25T19:24:58.320Z,0
2022-11-25T19:25:38.818Z,0
2022-11-25T19:26:19.328Z,0
2022-11-25T19:26:59.833Z,0
2022-11-25T19:27:40.325Z,0
2022-11-25T19:34:25.328Z,0
2022-11-25T19:35:05.796Z,0
2022-11-25T19:35:46.290Z,0
2022-11-25T19:36:26.778Z,0
2022-11-25T19:37:07.253Z,0
2022-11-25T19:37:47.768Z,0
2022-11-25T19:38:28.219Z,0
2022-11-25T19:39:08.714Z,0
2022-11-25T19:39:49.184Z,0
2022-11-25T19:40:31.455Z,0
2022-11-25T19:41:10.206Z,0
2022-11-25T19:47:55.208Z,0
2022-11-25T19:48:35.755Z,0
2022-11-25T19:49:16.244Z,0
2022-11-25T19:49:56.770Z,0
2022-11-25T19:50:37.270Z,0
2022-11-25T19:51:17.755Z,0
2022-11-25T19:51:58.261Z,0
2022-11-25T19:52:38.783Z,0
2022-11-25T19:53:19.300Z,0
2022-11-25T19:53:59.840Z,0
2022-11-25T19:54:40.323Z,0
2022-11-25T20:01:25.296Z,0
2022-11-25T20:02:05.755Z,0
2022-11-25T20:02:46.316Z,0
2022-11-25T20:03:26.719Z,0
2022-11-25T20:04:07.181Z,0
2022-11-25T20:04:47.675Z,0